createdAt,value
2023-03-04T00:00:53.604Z,102922.94
2023-03-04T00:03:24.036Z,102911.56
2023-03-04T00:05:52.419Z,102911.56
2023-03-04T00:08:20.952Z,102914.13
2023-03-04T00:10:49.562Z,102913.22
2023-03-04T00:13:22.121Z,102909.78
2023-03-04T00:15:54.750Z,102897.63
2023-03-04T00:18:23.165Z,102902.00
2023-03-04T00:20:52.005Z,102902.84
2023-03-04T00:23:20.682Z,102892.44
2023-03-04T00:25:50.293Z,102900.28
2023-03-04T00:28:21.853Z,102901.13
2023-03-04T00:30:50.411Z,102897.63
2023-03-04T00:33:19.406Z,102905.59
2023-03-04T00:35:47.877Z,102897.78
2023-03-04T00:38:16.447Z,102908.34
2023-03-04T00:40:45.141Z,102893.41
2023-03-04T00:43:13.432Z,102893.34
2023-03-04T00:45:43.626Z,102887.19
2023-03-04T00:48:13.277Z,102885.53
2023-03-04T00:50:42.535Z,102880.31
2023-03-04T00:53:12.025Z,102883.75
2023-03-04T00:55:40.556Z,102874.09
2023-03-04T00:58:08.893Z,102878.47
2023-03-04T01:00:37.658Z,102873.31
2023-03-04T01:03:07.662Z,102880.28
2023-03-04T01:05:36.166Z,102882.09
2023-03-04T01:08:05.560Z,102887.25
2023-03-04T01:10:34.297Z,102883.81
2023-03-04T01:13:02.962Z,102886.38
2023-03-04T01:15:31.547Z,102889.91
2023-03-04T01:17:59.922Z,102889.03
2023-03-04T01:20:29.993Z,102882.06
2023-03-04T01:22:58.355Z,102887.28
2023-03-04T01:25:26.861Z,102888.19
2023-03-04T01:27:55.574Z,102897.78
2023-03-04T01:30:24.038Z,102896.91
2023-03-04T01:32:52.752Z,102904.78
2023-03-04T01:35:21.216Z,102898.63
2023-03-04T01:37:51.055Z,102901.31
2023-03-04T01:40:19.810Z,102896.97
2023-03-04T01:42:48.349Z,102893.53
2023-03-04T01:45:20.690Z,102896.09
2023-03-04T01:47:50.687Z,102886.56
2023-03-04T01:50:23.896Z,102892.72
2023-03-04T01:52:53.926Z,102895.34
2023-03-04T01:55:24.804Z,102891.03
2023-03-04T01:57:54.014Z,102887.59
2023-03-04T02:00:27.353Z,102881.47
2023-03-04T02:02:59.226Z,102885.06
2023-03-04T02:05:30.045Z,102886.78
2023-03-04T02:08:01.962Z,102874.69
2023-03-04T02:10:30.492Z,102877.44
2023-03-04T02:12:59.958Z,102880.88
2023-03-04T02:15:29.414Z,102873.09
2023-03-04T02:17:57.881Z,102882.72
2023-03-04T02:20:37.513Z,102882.81
2023-03-04T02:23:13.737Z,102884.56
2023-03-04T02:25:47.460Z,102869.72
2023-03-04T02:28:18.184Z,102879.25
2023-03-04T02:30:46.968Z,102874.94
2023-03-04T02:33:18.918Z,102872.47
2023-03-04T02:35:48.655Z,102869.84
2023-03-04T02:38:17.539Z,102878.50
2023-03-04T02:40:51.072Z,102875.84
2023-03-04T02:43:21.611Z,102876.66
2023-03-04T02:45:52.016Z,102870.56
2023-03-04T02:48:24.310Z,102869.66
2023-03-04T02:50:54.578Z,102866.19
2023-03-04T02:53:23.183Z,102865.38
2023-03-04T02:55:51.905Z,102870.66
2023-03-04T02:58:22.282Z,102874.13
2023-03-04T03:00:50.736Z,102870.69
2023-03-04T03:03:19.065Z,102872.53
2023-03-04T03:05:47.557Z,102866.53
2023-03-04T03:08:15.839Z,102868.25
2023-03-04T03:10:44.691Z,102877.06
2023-03-04T03:13:13.048Z,102870.06
2023-03-04T03:15:43.502Z,102869.22
2023-03-04T03:18:12.505Z,102870.94
2023-03-04T03:20:40.982Z,102868.34
2023-03-04T03:23:09.829Z,102872.66
2023-03-04T03:25:40.859Z,102865.69
2023-03-04T03:28:09.215Z,102868.34
2023-03-04T03:30:37.547Z,102859.69
2023-03-04T03:33:07.269Z,102857.09
2023-03-04T03:35:35.902Z,102861.44
2023-03-04T03:38:04.904Z,102861.41
2023-03-04T03:40:33.358Z,102856.19
2023-03-04T03:43:01.916Z,102848.38
2023-03-04T03:45:30.480Z,102850.25
2023-03-04T03:47:58.986Z,102853.78
2023-03-04T03:50:29.809Z,102848.50
2023-03-04T03:52:59.001Z,102851.97
2023-03-04T03:55:27.551Z,102844.97
2023-03-04T03:57:56.011Z,102849.34
2023-03-04T04:00:24.734Z,102850.16
2023-03-04T04:02:54.793Z,102853.69
2023-03-04T04:05:23.228Z,102853.66
2023-03-04T04:07:54.144Z,102852.75
2023-03-04T04:10:23.220Z,102844.91
2023-03-04T04:12:51.866Z,102846.66
2023-03-04T04:15:23.823Z,102851.06
2023-03-04T04:17:52.314Z,102849.31
2023-03-04T04:20:21.309Z,102852.97
2023-03-04T04:22:50.029Z,102859.03
2023-03-04T04:25:19.883Z,102854.72
2023-03-04T04:27:48.445Z,102850.25
2023-03-04T04:30:20.526Z,102847.72
2023-03-04T04:32:49.179Z,102849.56
2023-03-04T04:35:17.541Z,102846.13
2023-03-04T04:37:45.757Z,102849.47
2023-03-04T04:40:14.836Z,102850.41
2023-03-04T04:42:44.853Z,102849.47
2023-03-04T04:45:14.516Z,102847.84
2023-03-04T04:47:43.057Z,102839.09
2023-03-04T04:50:12.766Z,102841.81
2023-03-04T04:52:41.290Z,102855.81
2023-03-04T04:55:10.881Z,102849.69
2023-03-04T04:57:40.028Z,102847.94
2023-03-04T05:00:11.732Z,102845.34
2023-03-04T05:02:40.015Z,102853.97
2023-03-04T05:05:09.490Z,102860.16
2023-03-04T05:07:39.010Z,102856.63
2023-03-04T05:10:08.397Z,102849.72
2023-03-04T05:12:37.046Z,102856.66
2023-03-04T05:15:06.366Z,102859.28
2023-03-04T05:17:36.778Z,102861.09
2023-03-04T05:20:07.498Z,102856.66
2023-03-04T05:22:38.891Z,102859.28
2023-03-04T05:25:08.548Z,102861.13
2023-03-04T05:27:36.922Z,102860.25
2023-03-04T05:30:06.070Z,102864.59
2023-03-04T05:32:36.791Z,102865.50
2023-03-04T05:35:05.794Z,102864.59
2023-03-04T05:37:34.250Z,102864.63
2023-03-04T05:40:02.588Z,102875.06
2023-03-04T05:42:30.986Z,102871.59
2023-03-04T05:44:59.309Z,102873.34
2023-03-04T05:47:28.037Z,102871.59
2023-03-04T05:49:58.319Z,102878.59
2023-03-04T05:52:27.022Z,102863.78
2023-03-04T05:54:55.495Z,102872.53
2023-03-04T05:57:24.110Z,102869.91
2023-03-04T05:59:52.729Z,102874.25
2023-03-04T06:02:21.389Z,102872.41
2023-03-04T06:04:49.914Z,102873.38
2023-03-04T06:07:19.871Z,102872.53
2023-03-04T06:09:48.222Z,102866.47
2023-03-04T06:12:16.480Z,102874.34
2023-03-04T06:14:44.770Z,102869.13
2023-03-04T06:17:13.410Z,102871.75
2023-03-04T06:19:42.639Z,102872.59
2023-03-04T06:22:11.970Z,102884.78
2023-03-04T06:24:42.350Z,102880.38
2023-03-04T06:27:10.870Z,102876.91
2023-03-04T06:29:39.410Z,102875.25
2023-03-04T06:32:08.134Z,102873.50
2023-03-04T06:34:37.556Z,102881.41
2023-03-04T06:37:06.384Z,102870.13
2023-03-04T06:39:35.075Z,102879.66
2023-03-04T06:42:05.295Z,102877.91
2023-03-04T06:44:33.764Z,102878.81
2023-03-04T06:47:02.682Z,102872.66
2023-03-04T06:49:31.190Z,102879.66
2023-03-04T06:52:00.033Z,102879.66
2023-03-04T06:54:28.862Z,102877.09
2023-03-04T06:56:57.324Z,102872.72
2023-03-04T06:59:27.325Z,102872.75
2023-03-04T07:01:56.341Z,102874.50
2023-03-04T07:04:24.940Z,102862.34
2023-03-04T07:06:53.457Z,102869.31
2023-03-04T07:09:22.186Z,102871.88
2023-03-04T07:11:50.430Z,102871.91
2023-03-04T07:14:22.390Z,102864.94
2023-03-04T07:16:53.859Z,102869.28
2023-03-04T07:19:22.152Z,102872.69
2023-03-04T07:21:51.248Z,102871.84
2023-03-04T07:24:19.650Z,102878.88
2023-03-04T07:26:48.231Z,102879.66
2023-03-04T07:29:16.757Z,102875.31
2023-03-04T07:31:45.600Z,102883.19
2023-03-04T07:34:17.361Z,102877.09
2023-03-04T07:36:46.115Z,102875.41
2023-03-04T07:39:15.010Z,102877.13
2023-03-04T07:41:43.746Z,102878.88
2023-03-04T07:44:13.679Z,102876.19
2023-03-04T07:46:42.359Z,102879.78
2023-03-04T07:49:15.401Z,102878.88
2023-03-04T07:51:43.990Z,102887.59
2023-03-04T07:54:13.085Z,102880.59
2023-03-04T07:56:41.831Z,102883.19
2023-03-04T07:59:10.674Z,102889.28
2023-03-04T08:01:40.208Z,102895.41
2023-03-04T08:04:09.891Z,102891.03
2023-03-04T08:06:43.660Z,102895.34
2023-03-04T08:09:13.723Z,102905.78
2023-03-04T08:11:44.559Z,102900.44
2023-03-04T08:14:14.048Z,102903.06
2023-03-04T08:16:43.074Z,102903.94
2023-03-04T08:19:13.688Z,102902.28
2023-03-04T08:21:43.586Z,102900.59
2023-03-04T08:24:12.933Z,102911.84
2023-03-04T08:26:44.843Z,102909.22
2023-03-04T08:29:15.539Z,102912.69
2023-03-04T08:31:48.798Z,102910.13
2023-03-04T08:34:18.486Z,102907.44
2023-03-04T08:36:48.286Z,102915.25
2023-03-04T08:39:18.738Z,102911.81
2023-03-04T08:41:48.425Z,102910.03
2023-03-04T08:44:17.466Z,102905.66
2023-03-04T08:46:46.915Z,102904.78
2023-03-04T08:49:16.366Z,102904.78
2023-03-04T08:51:45.648Z,102910.06
2023-03-04T08:54:17.320Z,102901.38
2023-03-04T08:56:45.762Z,102903.97
2023-03-04T08:59:14.268Z,102903.94
2023-03-04T09:01:42.806Z,102907.41
2023-03-04T09:04:14.571Z,102906.47
2023-03-04T09:06:43.333Z,102896.06
2023-03-04T09:09:12.298Z,102901.31
2023-03-04T09:11:42.440Z,102899.63
2023-03-04T09:14:13.492Z,102903.03
2023-03-04T09:16:42.088Z,102895.16
2023-03-04T09:19:10.601Z,102895.03
2023-03-04T09:21:39.180Z,102898.47
2023-03-04T09:24:08.023Z,102892.25
2023-03-04T09:26:36.615Z,102897.50
2023-03-04T09:29:06.766Z,102905.31
2023-03-04T09:31:36.399Z,102896.59
2023-03-04T09:34:07.877Z,102894.06
2023-03-04T09:36:36.605Z,102896.78
2023-03-04T09:39:09.540Z,102908.91
2023-03-04T09:41:43.609Z,102912.38
2023-03-04T09:44:24.518Z,102905.47
2023-03-04T09:46:58.443Z,102905.47
2023-03-04T09:49:28.758Z,102904.69
2023-03-04T09:52:04.234Z,102908.06
2023-03-04T09:54:53.537Z,102911.56
2023-03-04T09:57:42.302Z,102903.66
2023-03-04T10:00:20.357Z,102907.94
2023-03-04T10:03:11.328Z,102910.63
2023-03-04T10:05:46.085Z,102913.19
2023-03-04T10:08:29.304Z,102918.44
2023-03-04T10:11:01.174Z,102905.47
2023-03-04T10:13:41.443Z,102903.75
2023-03-04T10:16:18.241Z,102902.84
2023-03-04T10:18:54.306Z,102905.44
2023-03-04T10:21:28.585Z,102896.63
2023-03-04T10:23:59.673Z,102896.59
2023-03-04T10:26:33.744Z,102893.09
2023-03-04T10:29:07.316Z,102894.81
2023-03-04T10:31:44.412Z,102889.53
2023-03-04T10:34:16.645Z,102898.25
2023-03-04T10:36:59.474Z,102885.06
2023-03-04T10:39:33.590Z,102889.38
2023-03-04T10:42:04.143Z,102885.81
2023-03-04T10:44:34.680Z,102886.53
2023-03-04T10:47:11.656Z,102882.13
2023-03-04T10:49:53.219Z,102878.56
2023-03-04T10:52:30.929Z,102873.97
2023-03-04T10:55:21.470Z,102869.53
2023-03-04T10:57:54.807Z,102866.78
2023-03-04T11:00:33.648Z,102863.34
2023-03-04T11:03:29.354Z,102857.25
2023-03-04T11:06:12.313Z,102862.50
2023-03-04T11:08:43.963Z,102860.88
2023-03-04T11:11:25.446Z,102863.41
2023-03-04T11:13:57.702Z,102862.63
2023-03-04T11:16:29.968Z,102862.59
2023-03-04T11:19:07.832Z,102862.53
2023-03-04T11:21:42.150Z,102854.53
2023-03-04T11:24:29.260Z,102856.31
2023-03-04T11:27:03.100Z,102853.00
2023-03-04T11:29:37.196Z,102852.06
2023-03-04T11:32:13.434Z,102855.53
2023-03-04T11:34:52.089Z,102849.28
2023-03-04T11:37:26.427Z,102849.09
2023-03-04T11:39:58.509Z,102844.81
2023-03-04T11:42:38.818Z,102846.69
2023-03-04T11:45:27.906Z,102840.63
2023-03-04T11:48:09.223Z,102840.53
2023-03-04T11:50:50.682Z,102837.63
2023-03-04T11:53:42.214Z,102832.53
2023-03-04T11:56:34.442Z,102827.38
2023-03-04T11:59:31.920Z,102828.28
2023-03-04T12:02:13.472Z,102821.13
2023-03-04T12:05:18.789Z,102822.72
2023-03-04T12:08:10.346Z,102819.09
2023-03-04T12:10:43.416Z,102827.81
2023-03-04T12:13:37.189Z,102827.00
2023-03-04T12:16:18.318Z,102825.22
2023-03-04T12:19:06.499Z,102821.66
2023-03-04T12:21:56.793Z,102822.31
2023-03-04T12:25:09.980Z,102816.97
2023-03-04T12:27:48.235Z,102818.84
2023-03-04T12:30:29.696Z,102817.06
2023-03-04T12:33:09.675Z,102819.53
2023-03-04T12:35:43.386Z,102811.63
2023-03-04T12:38:32.996Z,102814.25
2023-03-04T12:41:15.202Z,102809.72
2023-03-04T12:43:52.844Z,102812.28
2023-03-04T12:46:33.355Z,102801.69
2023-03-04T12:49:24.688Z,102797.44
2023-03-04T12:52:04.399Z,102803.78
2023-03-04T12:54:36.240Z,102802.84
2023-03-04T12:57:13.254Z,102794.88
2023-03-04T12:59:47.118Z,102790.38
2023-03-04T13:02:41.423Z,102790.34
2023-03-04T13:05:25.073Z,102780.63
2023-03-04T13:08:03.909Z,102785.59
2023-03-04T13:10:34.642Z,102774.59
2023-03-04T13:13:05.130Z,102772.78
2023-03-04T13:15:37.940Z,102768.81
2023-03-04T13:18:35.679Z,102759.97
2023-03-04T13:21:23.109Z,102758.16
2023-03-04T13:23:53.452Z,102750.25
2023-03-04T13:26:34.879Z,102756.34
2023-03-04T13:29:35.439Z,102755.19
2023-03-04T13:32:06.742Z,102748.22
2023-03-04T13:34:52.062Z,102740.50
2023-03-04T13:37:35.990Z,102738.66
2023-03-04T13:40:40.964Z,102734.38
2023-03-04T13:43:30.217Z,102730.84
2023-03-04T13:46:31.891Z,102727.56
2023-03-04T13:49:04.562Z,102717.06
2023-03-04T13:51:38.456Z,102717.75
2023-03-04T13:54:17.089Z,102717.69
2023-03-04T13:56:47.912Z,102712.50
2023-03-04T13:59:24.946Z,102714.88
2023-03-04T14:02:16.079Z,102718.00
2023-03-04T14:04:46.679Z,102712.03
2023-03-04T14:07:27.768Z,102706.91
2023-03-04T14:09:59.679Z,102713.63
2023-03-04T14:12:30.565Z,102711.00
2023-03-04T14:15:02.170Z,102702.50
2023-03-04T14:17:37.300Z,102705.97
2023-03-04T14:20:07.792Z,102706.25
2023-03-04T14:22:41.836Z,102698.47
2023-03-04T14:25:26.040Z,102689.59
2023-03-04T14:28:05.249Z,102693.81
2023-03-04T14:30:43.660Z,102686.69
2023-03-04T14:33:22.514Z,102694.50
2023-03-04T14:35:55.388Z,102689.25
2023-03-04T14:38:27.585Z,102686.75
2023-03-04T14:41:01.721Z,102681.69
2023-03-04T14:43:32.114Z,102680.09
2023-03-04T14:46:04.010Z,102678.53
2023-03-04T14:48:36.406Z,102664.66
2023-03-04T14:51:05.945Z,102668.25
2023-03-04T14:53:36.144Z,102668.22
2023-03-04T14:56:07.602Z,102664.06
2023-03-04T14:58:37.605Z,102668.44
2023-03-04T15:01:17.334Z,102657.03
2023-03-04T15:03:57.573Z,102655.38
2023-03-04T15:06:28.313Z,102652.75
2023-03-04T15:08:59.281Z,102657.31
2023-03-04T15:11:29.728Z,102659.19
2023-03-04T15:14:00.153Z,102657.47
2023-03-04T15:16:30.813Z,102659.25
2023-03-04T15:19:03.844Z,102655.50
2023-03-04T15:21:37.138Z,102660.81
2023-03-04T15:24:07.115Z,102659.09
2023-03-04T15:26:41.412Z,102650.44
2023-03-04T15:29:16.645Z,102655.06
2023-03-04T15:31:48.588Z,102654.28
2023-03-04T15:34:20.383Z,102649.75
2023-03-04T15:36:51.881Z,102651.72
2023-03-04T15:39:23.613Z,102648.97
2023-03-04T15:41:52.174Z,102650.75
2023-03-04T15:44:21.089Z,102646.41
2023-03-04T15:46:49.442Z,102642.09
2023-03-04T15:49:22.607Z,102640.28
2023-03-04T15:51:51.198Z,102634.16
2023-03-04T15:54:19.750Z,102629.78
2023-03-04T15:56:48.232Z,102627.16
2023-03-04T15:59:19.120Z,102620.25
2023-03-04T16:01:47.727Z,102625.72
2023-03-04T16:04:17.982Z,102619.53
2023-03-04T16:06:50.778Z,102622.19
2023-03-04T16:09:23.123Z,102622.03
2023-03-04T16:11:52.930Z,102622.25
2023-03-04T16:14:21.462Z,102621.25
2023-03-04T16:16:50.843Z,102621.19
2023-03-04T16:19:19.292Z,102610.81
2023-03-04T16:21:49.563Z,102612.63
2023-03-04T16:24:20.481Z,102611.94
2023-03-04T16:26:50.046Z,102605.97
2023-03-04T16:29:18.560Z,102607.72
2023-03-04T16:31:46.973Z,102606.06
2023-03-04T16:34:15.662Z,102608.72
2023-03-04T16:36:44.315Z,102615.63
2023-03-04T16:39:21.364Z,102613.09
2023-03-04T16:41:50.496Z,102608.72
2023-03-04T16:44:19.187Z,102614.00
2023-03-04T16:46:47.932Z,102609.69
2023-03-04T16:49:16.220Z,102610.66
2023-03-04T16:51:48.563Z,102614.22
2023-03-04T16:54:20.705Z,102613.47
2023-03-04T16:56:49.199Z,102612.56
2023-03-04T16:59:18.895Z,102604.72
2023-03-04T17:01:47.634Z,102607.22
2023-03-04T17:04:16.582Z,102608.94
2023-03-04T17:06:45.246Z,102612.66
2023-03-04T17:09:13.517Z,102605.81
2023-03-04T17:11:44.430Z,102611.88
2023-03-04T17:14:13.377Z,102601.44
2023-03-04T17:16:42.030Z,102607.72
2023-03-04T17:19:10.350Z,102609.44
2023-03-04T17:21:38.964Z,102607.63
2023-03-04T17:24:11.132Z,102613.56
2023-03-04T17:26:39.985Z,102612.75
2023-03-04T17:29:10.254Z,102609.16
2023-03-04T17:31:39.344Z,102613.47
2023-03-04T17:34:07.748Z,102611.00
2023-03-04T17:36:36.413Z,102602.28
2023-03-04T17:39:06.364Z,102606.78
2023-03-04T17:41:36.320Z,102600.63
2023-03-04T17:44:06.252Z,102600.69
2023-03-04T17:46:36.279Z,102603.41
2023-03-04T17:49:04.878Z,102601.66
2023-03-04T17:51:36.428Z,102607.69
2023-03-04T17:54:05.783Z,102598.06
2023-03-04T17:56:35.980Z,102595.53
2023-03-04T17:59:08.448Z,102594.63
2023-03-04T18:01:38.673Z,102599.88
2023-03-04T18:04:07.725Z,102601.53
2023-03-04T18:06:36.003Z,102599.94
2023-03-04T18:09:04.877Z,102589.50
2023-03-04T18:11:36.508Z,102590.41
2023-03-04T18:14:05.710Z,102589.59
2023-03-04T18:16:34.643Z,102592.22
2023-03-04T18:19:04.916Z,102588.84
2023-03-04T18:21:34.341Z,102587.19
2023-03-04T18:24:03.763Z,102583.84
2023-03-04T18:26:32.721Z,102594.31
2023-03-04T18:29:01.310Z,102580.53
2023-03-04T18:31:32.553Z,102585.91
2023-03-04T18:34:05.189Z,102575.47
2023-03-04T18:36:34.663Z,102573.78
2023-03-04T18:39:05.652Z,102570.22
2023-03-04T18:41:34.571Z,102579.72
2023-03-04T18:44:03.450Z,102573.59
2023-03-04T18:46:40.978Z,102570.06
2023-03-04T18:49:12.151Z,102565.69
2023-03-04T18:51:40.504Z,102569.16
2023-03-04T18:54:08.868Z,102568.34
2023-03-04T18:56:46.481Z,102565.88
2023-03-04T18:59:17.961Z,102562.50
2023-03-04T19:01:47.327Z,102565.13
2023-03-04T19:04:19.803Z,102566.06
2023-03-04T19:06:48.666Z,102566.06
2023-03-04T19:09:16.930Z,102560.84
2023-03-04T19:11:45.336Z,102553.97
2023-03-04T19:14:13.851Z,102559.22
2023-03-04T19:16:42.456Z,102553.94
2023-03-04T19:19:10.839Z,102545.34
2023-03-04T19:21:42.125Z,102547.06
2023-03-04T19:24:10.655Z,102539.19
2023-03-04T19:26:40.356Z,102535.69
2023-03-04T19:29:08.894Z,102534.75
2023-03-04T19:31:41.473Z,102532.09
2023-03-04T19:34:10.134Z,102535.28
2023-03-04T19:36:38.972Z,102532.72
2023-03-04T19:39:10.778Z,102527.44
2023-03-04T19:41:41.478Z,102528.31
2023-03-04T19:44:09.947Z,102524.88
2023-03-04T19:46:38.520Z,102518.78
2023-03-04T19:49:07.194Z,102517.88
2023-03-04T19:51:35.913Z,102522.22
2023-03-04T19:54:04.865Z,102515.38
2023-03-04T19:56:35.242Z,102514.50
2023-03-04T19:59:03.803Z,102517.97
2023-03-04T20:01:34.148Z,102513.66
2023-03-04T20:04:05.489Z,102513.00
2023-03-04T20:06:37.619Z,102513.00
2023-03-04T20:09:07.211Z,102517.31
2023-03-04T20:11:47.354Z,102515.69
2023-03-04T20:14:24.728Z,102515.69
2023-03-04T20:16:53.147Z,102510.47
2023-03-04T20:19:21.972Z,102511.41
2023-03-04T20:21:51.471Z,102512.28
2023-03-04T20:24:20.503Z,102512.28
2023-03-04T20:26:51.269Z,102506.19
2023-03-04T20:29:20.560Z,102508.75
2023-03-04T20:31:49.495Z,102504.34
2023-03-04T20:34:18.096Z,102507.94
2023-03-04T20:36:46.388Z,102514.00
2023-03-04T20:39:28.206Z,102511.44
2023-03-04T20:42:00.167Z,102493.22
2023-03-04T20:44:28.930Z,102498.50
2023-03-04T20:46:58.631Z,102491.50
2023-03-04T20:49:29.351Z,102488.00
2023-03-04T20:52:03.364Z,102486.22
2023-03-04T20:54:32.063Z,102481.03
2023-03-04T20:57:02.135Z,102471.53
2023-03-04T20:59:30.580Z,102476.81
2023-03-04T21:01:59.949Z,102476.00
2023-03-04T21:04:28.833Z,102478.66
2023-03-04T21:06:57.529Z,102473.47
2023-03-04T21:09:27.322Z,102475.28
2023-03-04T21:11:56.212Z,102475.28
2023-03-04T21:14:27.966Z,102476.09
2023-03-04T21:16:58.571Z,102467.34
2023-03-04T21:19:29.042Z,102457.84
2023-03-04T21:21:58.659Z,102460.50
2023-03-04T21:24:29.386Z,102462.22
2023-03-04T21:27:01.798Z,102456.13
2023-03-04T21:29:32.400Z,102452.53
2023-03-04T21:32:20.923Z,102453.38
2023-03-04T21:34:52.458Z,102451.75
2023-03-04T21:37:24.007Z,102457.00
2023-03-04T21:39:52.471Z,102453.53
2023-03-04T21:42:21.053Z,102447.50
2023-03-04T21:44:52.001Z,102454.47
2023-03-04T21:47:21.514Z,102457.13
2023-03-04T21:49:50.690Z,102454.56
2023-03-04T21:52:19.649Z,102451.91
2023-03-04T21:54:49.714Z,102447.56
2023-03-04T21:57:18.601Z,102445.91
2023-03-04T21:59:47.675Z,102448.56
2023-03-04T22:02:19.619Z,102450.31
2023-03-04T22:04:48.854Z,102447.75
2023-03-04T22:07:18.335Z,102448.69
2023-03-04T22:09:47.052Z,102452.16
2023-03-04T22:12:18.247Z,102455.59
2023-03-04T22:14:47.384Z,102447.00
2023-03-04T22:17:17.773Z,102447.84
2023-03-04T22:19:46.117Z,102449.59
2023-03-04T22:22:18.234Z,102449.59
2023-03-04T22:24:46.847Z,102443.53
2023-03-04T22:27:18.036Z,102441.94
2023-03-04T22:29:48.485Z,102441.00
2023-03-04T22:32:18.726Z,102449.75
2023-03-04T22:34:47.190Z,102442.78
2023-03-04T22:37:15.485Z,102441.94
2023-03-04T22:39:43.948Z,102441.09
2023-03-04T22:42:12.595Z,102431.50
2023-03-04T22:44:41.029Z,102436.59
2023-03-04T22:47:09.479Z,102438.38
2023-03-04T22:49:41.348Z,102432.25
2023-03-04T22:52:09.733Z,102431.50
2023-03-04T22:54:38.743Z,102440.19
2023-03-04T22:57:07.379Z,102435.84
2023-03-04T22:59:36.221Z,102437.50
2023-03-04T23:02:05.068Z,102424.50
2023-03-04T23:04:33.878Z,102416.59
2023-03-04T23:07:04.155Z,102411.34
2023-03-04T23:09:32.839Z,102408.75
2023-03-04T23:12:01.393Z,102396.66
2023-03-04T23:14:29.953Z,102405.38
2023-03-04T23:16:58.658Z,102396.69
2023-03-04T23:19:27.198Z,102393.25
2023-03-04T23:21:55.904Z,102395.91
2023-03-04T23:24:26.775Z,102400.31
2023-03-04T23:26:55.385Z,102397.72
2023-03-04T23:29:24.308Z,102385.59
2023-03-04T23:31:53.023Z,102397.72
2023-03-04T23:34:22.279Z,102395.19
2023-03-04T23:36:50.948Z,102390.00
2023-03-04T23:39:19.801Z,102383.88
2023-03-04T23:41:49.790Z,102376.09
2023-03-04T23:44:18.250Z,102372.59
2023-03-04T23:46:46.892Z,102374.38
2023-03-04T23:49:17.528Z,102364.78
2023-03-04T23:51:46.466Z,102357.84
2023-03-04T23:54:15.515Z,102354.38
2023-03-04T23:56:43.893Z,102364.88
2023-03-04T23:59:13.988Z,102358.81
